sensor_id;sensor_type;location;lat;lon;timestamp;pressure;altitude;pressure_sealevel;temperature;humidity
47082;BME280;33066;49.296;14.470;2022-11-14T00:01:06;97503.44;;;11.30;42.91
47082;BME280;33066;49.296;14.470;2022-11-14T00:03:25;97493.66;;;11.31;42.82
47082;BME280;33066;49.296;14.470;2022-11-14T00:05:50;97492.75;;;11.37;42.69
47082;BME280;33066;49.296;14.470;2022-11-14T00:08:18;97495.62;;;11.33;42.75
47082;BME280;33066;49.296;14.470;2022-11-14T00:10:41;97495.98;;;11.46;42.59
47082;BME280;33066;49.296;14.470;2022-11-14T00:13:06;97489.21;;;11.39;42.66
47082;BME280;33066;49.296;14.470;2022-11-14T00:15:31;97488.15;;;11.47;42.53
47082;BME280;33066;49.296;14.470;2022-11-14T00:17:56;97481.83;;;11.49;42.61
47082;BME280;33066;49.296;14.470;2022-11-14T00:20:21;97476.94;;;11.64;42.36
47082;BME280;33066;49.296;14.470;2022-11-14T00:22:47;97474.11;;;11.72;42.25
47082;BME280;33066;49.296;14.470;2022-11-14T00:25:13;97468.72;;;11.75;42.15
47082;BME280;33066;49.296;14.470;2022-11-14T00:27:38;97463.06;;;11.52;42.12
47082;BME280;33066;49.296;14.470;2022-11-14T00:30:05;97463.40;;;11.59;42.39
47082;BME280;33066;49.296;14.470;2022-11-14T00:32:30;97466.86;;;11.41;42.38
47082;BME280;33066;49.296;14.470;2022-11-14T00:34:55;97467.23;;;11.63;42.40
47082;BME280;33066;49.296;14.470;2022-11-14T00:37:20;97464.43;;;11.47;42.25
47082;BME280;33066;49.296;14.470;2022-11-14T00:39:46;97466.24;;;11.66;42.29
47082;BME280;33066;49.296;14.470;2022-11-14T00:42:12;97475.23;;;11.68;42.25
47082;BME280;33066;49.296;14.470;2022-11-14T00:44:37;97473.18;;;11.47;42.55
47082;BME280;33066;49.296;14.470;2022-11-14T00:47:02;97473.51;;;11.56;42.54
47082;BME280;33066;49.296;14.470;2022-11-14T00:49:27;97467.56;;;11.64;42.42
47082;BME280;33066;49.296;14.470;2022-11-14T00:51:52;97470.89;;;11.44;42.33
47082;BME280;33066;49.296;14.470;2022-11-14T00:54:18;97474.00;;;11.34;42.43
47082;BME280;33066;49.296;14.470;2022-11-14T00:56:44;97474.64;;;11.59;42.42
47082;BME280;33066;49.296;14.470;2022-11-14T00:59:09;97480.47;;;11.53;42.47
47082;BME280;33066;49.296;14.470;2022-11-14T01:01:35;97479.65;;;11.60;42.36
47082;BME280;33066;49.296;14.470;2022-11-14T01:04:01;97476.73;;;11.56;42.44
47082;BME280;33066;49.296;14.470;2022-11-14T01:06:27;97478.99;;;11.64;42.32
47082;BME280;33066;49.296;14.470;2022-11-14T01:08:52;97478.27;;;11.25;42.47
47082;BME280;33066;49.296;14.470;2022-11-14T01:11:19;97475.67;;;11.39;42.60
47082;BME280;33066;49.296;14.470;2022-11-14T01:13:43;97475.40;;;11.34;42.58
47082;BME280;33066;49.296;14.470;2022-11-14T01:16:09;97463.40;;;11.21;42.68
47082;BME280;33066;49.296;14.470;2022-11-14T01:18:35;97472.18;;;11.09;42.87
47082;BME280;33066;49.296;14.470;2022-11-14T01:21:03;97474.79;;;11.07;42.90
47082;BME280;33066;49.296;14.470;2022-11-14T01:23:26;97461.00;;;11.16;42.78
47082;BME280;33066;49.296;14.470;2022-11-14T01:25:51;97459.09;;;11.17;42.66
47082;BME280;33066;49.296;14.470;2022-11-14T01:28:17;97454.01;;;10.96;43.06
47082;BME280;33066;49.296;14.470;2022-11-14T01:30:42;97457.69;;;11.17;43.15
47082;BME280;33066;49.296;14.470;2022-11-14T01:33:08;97461.62;;;11.07;43.00
47082;BME280;33066;49.296;14.470;2022-11-14T01:35:34;97456.72;;;11.13;42.90
47082;BME280;33066;49.296;14.470;2022-11-14T01:37:58;97453.71;;;11.08;42.95
47082;BME280;33066;49.296;14.470;2022-11-14T01:40:24;97451.17;;;11.37;42.92
47082;BME280;33066;49.296;14.470;2022-11-14T01:47:40;97458.90;;;11.44;42.52
47082;BME280;33066;49.296;14.470;2022-11-14T01:50:09;97452.54;;;11.25;42.39
47082;BME280;33066;49.296;14.470;2022-11-14T01:52:35;97454.95;;;11.45;42.40
47082;BME280;33066;49.296;14.470;2022-11-14T01:54:59;97446.06;;;11.46;42.40
47082;BME280;33066;49.296;14.470;2022-11-14T01:57:27;97441.50;;;11.25;42.62
47082;BME280;33066;49.296;14.470;2022-11-14T01:59:50;97444.99;;;11.21;42.66
47082;BME280;33066;49.296;14.470;2022-11-14T02:02:16;97434.40;;;11.15;42.78
47082;BME280;33066;49.296;14.470;2022-11-14T02:04:40;97438.39;;;11.23;42.68
47082;BME280;33066;49.296;14.470;2022-11-14T02:07:03;97425.66;;;11.41;42.44
47082;BME280;33066;49.296;14.470;2022-11-14T02:09:30;97427.41;;;11.50;42.29
47082;BME280;33066;49.296;14.470;2022-11-14T02:11:54;97425.29;;;11.51;42.17
47082;BME280;33066;49.296;14.470;2022-11-14T02:14:19;97420.24;;;11.54;42.23
47082;BME280;33066;49.296;14.470;2022-11-14T02:16:45;97415.34;;;11.49;42.30
47082;BME280;33066;49.296;14.470;2022-11-14T02:19:13;97408.57;;;11.52;42.32
47082;BME280;33066;49.296;14.470;2022-11-14T02:21:36;97406.04;;;11.66;42.18
47082;BME280;33066;49.296;14.470;2022-11-14T02:24:01;97404.52;;;11.78;41.86
47082;BME280;33066;49.296;14.470;2022-11-14T02:26:27;97404.71;;;11.59;41.84
47082;BME280;33066;49.296;14.470;2022-11-14T02:28:53;97397.03;;;11.70;41.63
47082;BME280;33066;49.296;14.470;2022-11-14T02:31:18;97389.45;;;11.47;41.47
47082;BME280;33066;49.296;14.470;2022-11-14T02:33:43;97393.06;;;11.69;41.60
47082;BME280;33066;49.296;14.470;2022-11-14T02:36:08;97395.57;;;11.89;41.62
47082;BME280;33066;49.296;14.470;2022-11-14T02:38:35;97393.81;;;11.84;41.65
47082;BME280;33066;49.296;14.470;2022-11-14T02:41:00;97394.85;;;11.56;41.70
47082;BME280;33066;49.296;14.470;2022-11-14T02:43:25;97395.09;;;11.37;42.02
47082;BME280;33066;49.296;14.470;2022-11-14T02:45:50;97391.71;;;11.65;41.91
47082;BME280;33066;49.296;14.470;2022-11-14T02:48:16;97389.61;;;11.52;42.10
47082;BME280;33066;49.296;14.470;2022-11-14T02:50:42;97384.78;;;11.41;42.18
47082;BME280;33066;49.296;14.470;2022-11-14T02:53:07;97387.90;;;11.29;42.41
47082;BME280;33066;49.296;14.470;2022-11-14T02:55:33;97384.46;;;11.22;42.47
47082;BME280;33066;49.296;14.470;2022-11-14T02:57:59;97382.55;;;11.19;42.55
47082;BME280;33066;49.296;14.470;2022-11-14T03:00:24;97376.25;;;11.09;42.61
47082;BME280;33066;49.296;14.470;2022-11-14T03:02:52;97376.22;;;11.03;42.75
47082;BME280;33066;49.296;14.470;2022-11-14T03:05:15;97366.96;;;10.97;42.91
47082;BME280;33066;49.296;14.470;2022-11-14T03:07:40;97360.83;;;11.01;42.88
47082;BME280;33066;49.296;14.470;2022-11-14T03:10:07;97362.35;;;10.99;42.87
47082;BME280;33066;49.296;14.470;2022-11-14T03:12:31;97363.03;;;10.92;43.03
47082;BME280;33066;49.296;14.470;2022-11-14T03:14:57;97362.76;;;10.85;43.12
47082;BME280;33066;49.296;14.470;2022-11-14T03:17:22;97361.83;;;10.82;43.19
47082;BME280;33066;49.296;14.470;2022-11-14T03:19:48;97368.28;;;11.09;43.09
47082;BME280;33066;49.296;14.470;2022-11-14T03:22:13;97362.06;;;10.80;43.07
47082;BME280;33066;49.296;14.470;2022-11-14T03:24:38;97357.30;;;10.75;43.07
47082;BME280;33066;49.296;14.470;2022-11-14T03:27:04;97362.94;;;11.02;43.02
47082;BME280;33066;49.296;14.470;2022-11-14T03:29:29;97362.56;;;10.78;42.98
47082;BME280;33066;49.296;14.470;2022-11-14T03:31:55;97357.63;;;10.69;43.13
47082;BME280;33066;49.296;14.470;2022-11-14T03:34:20;97357.84;;;10.74;43.04
47082;BME280;33066;49.296;14.470;2022-11-14T03:36:46;97360.26;;;10.60;43.25
47082;BME280;33066;49.296;14.470;2022-11-14T03:39:12;97358.53;;;10.63;43.11
47082;BME280;33066;49.296;14.470;2022-11-14T03:41:37;97349.03;;;10.86;43.16
47082;BME280;33066;49.296;14.470;2022-11-14T03:44:02;97346.51;;;10.60;43.22
47082;BME280;33066;49.296;14.470;2022-11-14T03:46:28;97355.80;;;10.44;43.49
47082;BME280;33066;49.296;14.470;2022-11-14T03:48:53;97364.03;;;10.54;43.39
47082;BME280;33066;49.296;14.470;2022-11-14T03:51:18;97354.21;;;10.62;43.28
47082;BME280;33066;49.296;14.470;2022-11-14T03:53:44;97354.88;;;10.36;43.26
47082;BME280;33066;49.296;14.470;2022-11-14T03:56:09;97356.57;;;10.45;43.35
47082;BME280;33066;49.296;14.470;2022-11-14T03:58:34;97351.07;;;10.77;43.30
47082;BME280;33066;49.296;14.470;2022-11-14T04:01:00;97347.22;;;10.49;43.21
47082;BME280;33066;49.296;14.470;2022-11-14T04:03:26;97346.07;;;10.73;43.21
47082;BME280;33066;49.296;14.470;2022-11-14T04:05:51;97346.83;;;10.73;43.12
47082;BME280;33066;49.296;14.470;2022-11-14T04:08:17;97350.24;;;10.70;43.15
47082;BME280;33066;49.296;14.470;2022-11-14T04:13:00;97341.93;;;11.08;42.36
47082;BME280;33066;49.296;14.470;2022-11-14T04:15:26;97339.84;;;11.03;42.26
47082;BME280;33066;49.296;14.470;2022-11-14T04:17:52;97341.90;;;10.86;42.62
47082;BME280;33066;49.296;14.470;2022-11-14T04:20:17;97341.05;;;10.81;42.80
47082;BME280;33066;49.296;14.470;2022-11-14T04:22:42;97342.24;;;11.19;42.65
47082;BME280;33066;49.296;14.470;2022-11-14T04:25:08;97337.26;;;11.03;42.63
47082;BME280;33066;49.296;14.470;2022-11-14T04:27:34;97328.23;;;11.30;42.56
47082;BME280;33066;49.296;14.470;2022-11-14T04:29:59;97327.91;;;11.21;42.69
47082;BME280;33066;49.296;14.470;2022-11-14T04:32:25;97329.65;;;10.81;42.99
47082;BME280;33066;49.296;14.470;2022-11-14T04:34:50;97323.53;;;10.83;43.01
47082;BME280;33066;49.296;14.470;2022-11-14T04:37:15;97320.50;;;10.83;43.02
47082;BME280;33066;49.296;14.470;2022-11-14T04:39:41;97324.56;;;10.70;43.32
47082;BME280;33066;49.296;14.470;2022-11-14T04:42:06;97310.11;;;10.65;43.52
47082;BME280;33066;49.296;14.470;2022-11-14T04:44:31;97308.83;;;10.64;43.75
47082;BME280;33066;49.296;14.470;2022-11-14T04:46:57;97302.34;;;10.72;44.04
47082;BME280;33066;49.296;14.470;2022-11-14T04:49:23;97293.25;;;10.86;43.92
47082;BME280;33066;49.296;14.470;2022-11-14T04:51:48;97291.12;;;10.66;44.28
47082;BME280;33066;49.296;14.470;2022-11-14T04:54:14;97289.25;;;10.56;44.52
47082;BME280;33066;49.296;14.470;2022-11-14T04:56:39;97282.43;;;10.61;44.55
47082;BME280;33066;49.296;14.470;2022-11-14T04:59:05;97273.80;;;10.50;44.68
47082;BME280;33066;49.296;14.470;2022-11-14T05:01:30;97277.58;;;10.68;44.96
47082;BME280;33066;49.296;14.470;2022-11-14T05:03:56;97276.99;;;10.77;45.05
47082;BME280;33066;49.296;14.470;2022-11-14T05:06:22;97272.95;;;10.46;45.04
47082;BME280;33066;49.296;14.470;2022-11-14T05:08:47;97265.31;;;10.64;45.29
47082;BME280;33066;49.296;14.470;2022-11-14T05:11:13;97266.74;;;10.60;45.07
47082;BME280;33066;49.296;14.470;2022-11-14T05:13:37;97255.75;;;10.65;45.07
47082;BME280;33066;49.296;14.470;2022-11-14T05:16:04;97255.74;;;10.66;44.83
47082;BME280;33066;49.296;14.470;2022-11-14T05:18:29;97260.36;;;10.57;44.72
47082;BME280;33066;49.296;14.470;2022-11-14T05:20:57;97267.67;;;10.33;44.76
47082;BME280;33066;49.296;14.470;2022-11-14T05:23:22;97278.12;;;10.25;45.01
47082;BME280;33066;49.296;14.470;2022-11-14T05:25:45;97280.10;;;10.62;44.87
47082;BME280;33066;49.296;14.470;2022-11-14T05:28:11;97280.01;;;10.38;44.75
47082;BME280;33066;49.296;14.470;2022-11-14T05:30:37;97285.90;;;10.58;45.20
47082;BME280;33066;49.296;14.470;2022-11-14T05:33:02;97280.72;;;10.52;45.01
47082;BME280;33066;49.296;14.470;2022-11-14T05:35:28;97282.60;;;11.02;44.70
47082;BME280;33066;49.296;14.470;2022-11-14T05:37:53;97283.79;;;10.86;44.73
47082;BME280;33066;49.296;14.470;2022-11-14T05:40:18;97289.19;;;10.78;44.43
47082;BME280;33066;49.296;14.470;2022-11-14T05:42:44;97288.79;;;10.78;44.22
47082;BME280;33066;49.296;14.470;2022-11-14T05:45:09;97294.05;;;10.87;44.16
47082;BME280;33066;49.296;14.470;2022-11-14T05:47:35;97312.22;;;11.13;43.91
47082;BME280;33066;49.296;14.470;2022-11-14T05:50:00;97324.11;;;11.36;43.51
47082;BME280;33066;49.296;14.470;2022-11-14T05:52:25;97321.15;;;11.53;43.45
47082;BME280;33066;49.296;14.470;2022-11-14T05:54:51;97314.50;;;11.58;43.42
47082;BME280;33066;49.296;14.470;2022-11-14T05:57:16;97323.58;;;11.46;43.57
47082;BME280;33066;49.296;14.470;2022-11-14T05:59:41;97327.35;;;11.82;43.10
47082;BME280;33066;49.296;14.470;2022-11-14T06:02:06;97325.94;;;11.52;43.02
47082;BME280;33066;49.296;14.470;2022-11-14T06:04:32;97331.03;;;11.92;42.86
47082;BME280;33066;49.296;14.470;2022-11-14T06:06:57;97325.71;;;11.87;42.58
47082;BME280;33066;49.296;14.470;2022-11-14T06:09:22;97327.78;;;12.04;42.40
47082;BME280;33066;49.296;14.470;2022-11-14T06:11:47;97327.34;;;12.28;42.33
47082;BME280;33066;49.296;14.470;2022-11-14T06:14:13;97324.24;;;11.69;42.26
47082;BME280;33066;49.296;14.470;2022-11-14T06:16:39;97328.77;;;10.76;42.38
47082;BME280;33066;49.296;14.470;2022-11-14T06:19:04;97330.67;;;12.09;41.84
47082;BME280;33066;49.296;14.470;2022-11-14T06:21:30;97327.77;;;12.15;41.95
47082;BME280;33066;49.296;14.470;2022-11-14T06:23:56;97322.80;;;12.25;42.18
47082;BME280;33066;49.296;14.470;2022-11-14T06:26:22;97320.13;;;11.97;42.24
47082;BME280;33066;49.296;14.470;2022-11-14T06:28:46;97322.29;;;11.94;42.24
47082;BME280;33066;49.296;14.470;2022-11-14T06:31:11;97310.83;;;11.68;42.64
47082;BME280;33066;49.296;14.470;2022-11-14T06:33:37;97311.52;;;11.79;42.58
47082;BME280;33066;49.296;14.470;2022-11-14T06:36:04;97310.81;;;11.96;42.70
47082;BME280;33066;49.296;14.470;2022-11-14T06:38:31;97308.09;;;11.94;42.73
47082;BME280;33066;49.296;14.470;2022-11-14T06:41:01;97318.46;;;11.90;42.63
47082;BME280;33066;49.296;14.470;2022-11-14T06:43:18;97327.52;;;11.73;42.70
47082;BME280;33066;49.296;14.470;2022-11-14T06:45:43;97323.08;;;11.87;42.88
47082;BME280;33066;49.296;14.470;2022-11-14T06:48:09;97326.73;;;11.95;42.78
47082;BME280;33066;49.296;14.470;2022-11-14T06:50:35;97334.34;;;11.53;42.72
47082;BME280;33066;49.296;14.470;2022-11-14T06:53:00;97326.26;;;11.50;42.96
47082;BME280;33066;49.296;14.470;2022-11-14T06:55:26;97320.49;;;11.61;42.92
47082;BME280;33066;49.296;14.470;2022-11-14T06:57:52;97321.00;;;11.85;43.03
47082;BME280;33066;49.296;14.470;2022-11-14T07:00:17;97321.25;;;11.88;43.05
47082;BME280;33066;49.296;14.470;2022-11-14T07:02:44;97327.24;;;12.04;43.14
47082;BME280;33066;49.296;14.470;2022-11-14T07:05:07;97338.05;;;11.80;42.91
47082;BME280;33066;49.296;14.470;2022-11-14T07:07:32;97332.35;;;11.93;43.07
47082;BME280;33066;49.296;14.470;2022-11-14T07:09:58;97329.28;;;12.37;42.89
47082;BME280;33066;49.296;14.470;2022-11-14T07:12:23;97322.33;;;12.05;42.75
47082;BME280;33066;49.296;14.470;2022-11-14T07:14:48;97319.32;;;12.45;42.55
47082;BME280;33066;49.296;14.470;2022-11-14T07:17:13;97320.84;;;12.08;42.36
47082;BME280;33066;49.296;14.470;2022-11-14T07:19:38;97323.73;;;12.09;42.45
47082;BME280;33066;49.296;14.470;2022-11-14T07:22:04;97320.84;;;12.15;42.43
47082;BME280;33066;49.296;14.470;2022-11-14T07:24:29;97322.07;;;12.24;42.22
47082;BME280;33066;49.296;14.470;2022-11-14T07:26:54;97315.21;;;12.25;42.25
47082;BME280;33066;49.296;14.470;2022-11-14T07:29:20;97319.91;;;12.17;42.29
47082;BME280;33066;49.296;14.470;2022-11-14T07:31:45;97322.38;;;12.46;42.43
47082;BME280;33066;49.296;14.470;2022-11-14T07:34:11;97329.81;;;12.02;42.76
47082;BME280;33066;49.296;14.470;2022-11-14T07:36:36;97338.12;;;12.19;42.90
47082;BME280;33066;49.296;14.470;2022-11-14T07:39:01;97337.24;;;12.07;42.75
47082;BME280;33066;49.296;14.470;2022-11-14T07:41:27;97342.51;;;12.09;42.60
47082;BME280;33066;49.296;14.470;2022-11-14T07:43:53;97346.26;;;12.01;42.64
47082;BME280;33066;49.296;14.470;2022-11-14T07:46:18;97346.57;;;12.14;42.90
47082;BME280;33066;49.296;14.470;2022-11-14T07:48:43;97347.95;;;11.77;43.16
47082;BME280;33066;49.296;14.470;2022-11-14T07:51:14;97343.51;;;11.87;42.86
47082;BME280;33066;49.296;14.470;2022-11-14T07:53:34;97344.27;;;12.46;42.92
47082;BME280;33066;49.296;14.470;2022-11-14T07:56:02;97332.97;;;12.02;42.69
47082;BME280;33066;49.296;14.470;2022-11-14T07:58:25;97336.19;;;12.36;42.97
47082;BME280;33066;49.296;14.470;2022-11-14T08:00:51;97337.80;;;12.24;42.76
47082;BME280;33066;49.296;14.470;2022-11-14T08:03:16;97330.79;;;12.12;42.60
47082;BME280;33066;49.296;14.470;2022-11-14T08:05:42;97326.38;;;12.29;42.41
47082;BME280;33066;49.296;14.470;2022-11-14T08:08:08;97321.92;;;12.45;42.30
47082;BME280;33066;49.296;14.470;2022-11-14T08:10:33;97319.36;;;12.61;42.11
47082;BME280;33066;49.296;14.470;2022-11-14T08:12:59;97326.06;;;12.66;41.94
47082;BME280;33066;49.296;14.470;2022-11-14T08:15:23;97324.91;;;12.78;41.76
47082;BME280;33066;49.296;14.470;2022-11-14T08:17:49;97329.09;;;12.89;41.67
47082;BME280;33066;49.296;14.470;2022-11-14T08:20:14;97330.09;;;12.56;41.67
47082;BME280;33066;49.296;14.470;2022-11-14T08:22:40;97325.12;;;12.74;41.74
47082;BME280;33066;49.296;14.470;2022-11-14T08:25:05;97318.42;;;12.78;41.73
47082;BME280;33066;49.296;14.470;2022-11-14T08:27:30;97317.09;;;12.82;41.63
47082;BME280;33066;49.296;14.470;2022-11-14T08:29:56;97318.32;;;12.36;42.13
47082;BME280;33066;49.296;14.470;2022-11-14T08:32:21;97317.51;;;12.40;42.18
47082;BME280;33066;49.296;14.470;2022-11-14T08:34:47;97314.88;;;12.49;42.18
47082;BME280;33066;49.296;14.470;2022-11-14T08:37:12;97316.84;;;12.55;42.16
47082;BME280;33066;49.296;14.470;2022-11-14T08:39:37;97311.35;;;12.71;41.95
47082;BME280;33066;49.296;14.470;2022-11-14T08:42:03;97310.32;;;12.61;41.87
47082;BME280;33066;49.296;14.470;2022-11-14T08:44:28;97307.06;;;12.56;42.02
47082;BME280;33066;49.296;14.470;2022-11-14T08:46:54;97306.10;;;12.45;42.27
47082;BME280;33066;49.296;14.470;2022-11-14T08:49:20;97306.65;;;12.37;42.22
47082;BME280;33066;49.296;14.470;2022-11-14T08:51:45;97304.50;;;12.42;42.16
47082;BME280;33066;49.296;14.470;2022-11-14T08:54:10;97303.92;;;12.44;42.11
47082;BME280;33066;49.296;14.470;2022-11-14T08:56:36;97303.63;;;12.55;42.19
47082;BME280;33066;49.296;14.470;2022-11-14T08:59:02;97305.59;;;12.77;41.96
47082;BME280;33066;49.296;14.470;2022-11-14T09:01:26;97301.69;;;12.92;41.68
47082;BME280;33066;49.296;14.470;2022-11-14T09:03:52;97300.15;;;13.09;41.57
47082;BME280;33066;49.296;14.470;2022-11-14T09:06:18;97300.06;;;13.09;41.38
47082;BME280;33066;49.296;14.470;2022-11-14T09:08:43;97298.54;;;12.80;41.30
47082;BME280;33066;49.296;14.470;2022-11-14T09:11:08;97295.82;;;12.71;41.40
47082;BME280;33066;49.296;14.470;2022-11-14T09:13:34;97298.80;;;13.16;41.33
47082;BME280;33066;49.296;14.470;2022-11-14T09:15:59;97293.09;;;13.22;41.24
47082;BME280;33066;49.296;14.470;2022-11-14T09:18:24;97291.02;;;13.17;41.21
47082;BME280;33066;49.296;14.470;2022-11-14T09:20:50;97294.47;;;13.23;41.11
47082;BME280;33066;49.296;14.470;2022-11-14T09:23:16;97295.92;;;12.42;41.13
47082;BME280;33066;49.296;14.470;2022-11-14T09:25:40;97291.34;;;13.57;39.53
47082;BME280;33066;49.296;14.470;2022-11-14T09:28:06;97289.29;;;13.83;39.34
47082;BME280;33066;49.296;14.470;2022-11-14T09:30:32;97294.46;;;13.77;39.63
47082;BME280;33066;49.296;14.470;2022-11-14T09:32:58;97292.24;;;13.33;39.96
47082;BME280;33066;49.296;14.470;2022-11-14T09:35:22;97287.59;;;13.42;40.23
47082;BME280;33066;49.296;14.470;2022-11-14T09:37:48;97287.57;;;13.54;40.34
47082;BME280;33066;49.296;14.470;2022-11-14T09:40:13;97282.34;;;13.71;40.25
47082;BME280;33066;49.296;14.470;2022-11-14T09:42:52;97275.58;;;14.07;40.18
47082;BME280;33066;49.296;14.470;2022-11-14T09:45:09;97270.64;;;14.05;39.97
47082;BME280;33066;49.296;14.470;2022-11-14T09:47:31;97263.91;;;14.14;39.60
47082;BME280;33066;49.296;14.470;2022-11-14T09:50:00;97264.27;;;14.13;39.03
47082;BME280;33066;49.296;14.470;2022-11-14T09:52:27;97268.66;;;13.92;39.16
47082;BME280;33066;49.296;14.470;2022-11-14T09:54:51;97264.70;;;14.22;39.36
47082;BME280;33066;49.296;14.470;2022-11-14T09:57:15;97264.45;;;14.33;39.38
47082;BME280;33066;49.296;14.470;2022-11-14T09:59:36;97264.94;;;14.07;39.15
47082;BME280;33066;49.296;14.470;2022-11-14T10:02:10;97257.25;;;14.40;39.04
47082;BME280;33066;49.296;14.470;2022-11-14T10:04:38;97257.60;;;14.33;39.18
47082;BME280;33066;49.296;14.470;2022-11-14T10:06:57;97260.38;;;14.13;39.09
47082;BME280;33066;49.296;14.470;2022-11-14T10:09:31;97261.59;;;14.55;38.63
47082;BME280;33066;49.296;14.470;2022-11-14T10:11:48;97255.33;;;14.45;38.47
47082;BME280;33066;49.296;14.470;2022-11-14T10:14:22;97258.44;;;14.15;38.55
47082;BME280;33066;49.296;14.470;2022-11-14T10:16:40;97253.62;;;14.65;38.40
47082;BME280;33066;49.296;14.470;2022-11-14T10:19:10;97243.28;;;14.63;38.32
47082;BME280;33066;49.296;14.470;2022-11-14T10:21:35;97236.05;;;14.91;38.11
47082;BME280;33066;49.296;14.470;2022-11-14T10:23:58;97237.91;;;14.74;38.17
47082;BME280;33066;49.296;14.470;2022-11-14T10:26:24;97244.77;;;15.00;38.12
47082;BME280;33066;49.296;14.470;2022-11-14T10:28:55;97242.90;;;14.83;37.59
47082;BME280;33066;49.296;14.470;2022-11-14T10:31:17;97242.49;;;14.48;38.05
47082;BME280;33066;49.296;14.470;2022-11-14T10:33:41;97234.60;;;14.46;38.19
47082;BME280;33066;49.296;14.470;2022-11-14T10:36:05;97235.36;;;15.02;37.90
47082;BME280;33066;49.296;14.470;2022-11-14T10:38:30;97233.65;;;14.74;37.67
47082;BME280;33066;49.296;14.470;2022-11-14T10:40:53;97235.21;;;14.96;37.78
47082;BME280;33066;49.296;14.470;2022-11-14T10:43:21;97226.56;;;15.24;37.68
47082;BME280;33066;49.296;14.470;2022-11-14T10:45:46;97222.30;;;15.36;37.45
47082;BME280;33066;49.296;14.470;2022-11-14T10:48:10;97219.22;;;15.41;37.20
47082;BME280;33066;49.296;14.470;2022-11-14T10:50:39;97215.61;;;15.13;37.40
47082;BME280;33066;49.296;14.470;2022-11-14T10:53:02;97209.21;;;15.34;37.30
47082;BME280;33066;49.296;14.470;2022-11-14T10:55:23;97202.84;;;15.51;37.05
47082;BME280;33066;49.296;14.470;2022-11-14T10:57:49;97198.80;;;15.44;37.02
47082;BME280;33066;49.296;14.470;2022-11-14T11:00:17;97200.61;;;15.32;36.97
47082;BME280;33066;49.296;14.470;2022-11-14T11:02:48;97197.87;;;15.90;36.68
47082;BME280;33066;49.296;14.470;2022-11-14T11:05:13;97193.15;;;15.87;36.42
47082;BME280;33066;49.296;14.470;2022-11-14T11:07:30;97191.61;;;16.02;36.15
47082;BME280;33066;49.296;14.470;2022-11-14T11:09:58;97196.26;;;16.14;35.92
47082;BME280;33066;49.296;14.470;2022-11-14T11:12:23;97196.46;;;16.17;35.78
47082;BME280;33066;49.296;14.470;2022-11-14T11:14:48;97192.64;;;16.27;35.90
47082;BME280;33066;49.296;14.470;2022-11-14T11:17:19;97191.77;;;16.54;35.68
47082;BME280;33066;49.296;14.470;2022-11-14T11:19:37;97184.95;;;16.59;35.51
47082;BME280;33066;49.296;14.470;2022-11-14T11:22:03;97183.42;;;17.02;35.26
47082;BME280;33066;49.296;14.470;2022-11-14T11:24:33;97181.13;;;16.61;35.08
47082;BME280;33066;49.296;14.470;2022-11-14T11:29:19;97174.94;;;16.93;34.88
47082;BME280;33066;49.296;14.470;2022-11-14T11:31:51;97169.19;;;17.18;34.62
47082;BME280;33066;49.296;14.470;2022-11-14T11:34:09;97166.32;;;17.22;34.25
47082;BME280;33066;49.296;14.470;2022-11-14T11:36:40;97169.84;;;16.44;33.80
47082;BME280;33066;49.296;14.470;2022-11-14T11:39:00;97165.92;;;17.82;32.91
47082;BME280;33066;49.296;14.470;2022-11-14T11:41:29;97161.55;;;18.07;32.51
47082;BME280;33066;49.296;14.470;2022-11-14T11:43:53;97161.14;;;18.65;31.83
47082;BME280;33066;49.296;14.470;2022-11-14T11:46:20;97158.46;;;19.35;30.87
47082;BME280;33066;49.296;14.470;2022-11-14T11:48:41;97152.33;;;20.61;29.48
47082;BME280;33066;49.296;14.470;2022-11-14T11:51:14;97146.25;;;21.01;28.02
47082;BME280;33066;49.296;14.470;2022-11-14T11:53:36;97143.62;;;21.71;27.42
47082;BME280;33066;49.296;14.470;2022-11-14T11:56:03;97137.14;;;22.45;26.16
47082;BME280;33066;49.296;14.470;2022-11-14T11:58:27;97130.47;;;23.43;25.28
47082;BME280;33066;49.296;14.470;2022-11-14T12:00:51;97120.67;;;23.85;24.49
47082;BME280;33066;49.296;14.470;2022-11-14T12:03:15;97121.78;;;24.69;23.77
47082;BME280;33066;49.296;14.470;2022-11-14T12:05:48;97118.59;;;25.26;23.10
47082;BME280;33066;49.296;14.470;2022-11-14T12:08:11;97118.48;;;26.13;22.46
47082;BME280;33066;49.296;14.470;2022-11-14T12:10:35;97115.93;;;26.90;21.79
47082;BME280;33066;49.296;14.470;2022-11-14T12:13:14;97120.64;;;27.13;21.28
47082;BME280;33066;49.296;14.470;2022-11-14T12:15:28;97124.88;;;27.50;20.98
47082;BME280;33066;49.296;14.470;2022-11-14T12:20:31;97123.73;;;28.28;19.99
47082;BME280;33066;49.296;14.470;2022-11-14T12:22:51;97120.93;;;28.93;19.60
47082;BME280;33066;49.296;14.470;2022-11-14T12:25:18;97125.02;;;29.08;19.15
47082;BME280;33066;49.296;14.470;2022-11-14T12:27:44;97123.01;;;29.74;18.68
47082;BME280;33066;49.296;14.470;2022-11-14T12:30:03;97117.27;;;30.34;18.19
47082;BME280;33066;49.296;14.470;2022-11-14T12:32:27;97119.86;;;30.11;17.98
47082;BME280;33066;49.296;14.470;2022-11-14T12:34:47;97121.23;;;29.90;18.00
47082;BME280;33066;49.296;14.470;2022-11-14T12:37:16;97114.92;;;30.23;17.90
47082;BME280;33066;49.296;14.470;2022-11-14T12:39:38;97112.93;;;30.85;17.55
47082;BME280;33066;49.296;14.470;2022-11-14T12:42:04;97108.14;;;31.03;17.34
47082;BME280;33066;49.296;14.470;2022-11-14T12:44:34;97099.17;;;31.74;16.84
47082;BME280;33066;49.296;14.470;2022-11-14T12:49:36;97098.16;;;32.67;16.00
47082;BME280;33066;49.296;14.470;2022-11-14T12:51:50;97091.37;;;32.78;15.60
47082;BME280;33066;49.296;14.470;2022-11-14T12:56:49;97104.21;;;34.02;15.15